createdAt,value
2017-12-31T00:00:34.594Z,77.87
2017-12-31T00:01:34.591Z,78.16
2017-12-31T00:02:34.590Z,78.73
2017-12-31T00:03:34.587Z,78.35
2017-12-31T00:04:34.585Z,78.06
2017-12-31T00:05:34.584Z,78.16
2017-12-31T00:06:34.581Z,79.02
2017-12-31T00:07:34.579Z,77.97
2017-12-31T00:08:34.577Z,77.78
2017-12-31T00:09:34.575Z,78.54
2017-12-31T00:10:34.572Z,77.30
2017-12-31T00:11:34.571Z,77.87
2017-12-31T00:12:34.570Z,77.69
2017-12-31T00:13:34.566Z,77.11
2017-12-31T00:14:34.566Z,77.20
2017-12-31T00:15:34.563Z,77.30
2017-12-31T00:16:34.562Z,76.35
2017-12-31T00:17:34.560Z,75.78
2017-12-31T00:18:34.557Z,75.68
2017-12-31T00:19:34.557Z,75.30
2017-12-31T00:20:34.554Z,75.59
2017-12-31T00:21:34.552Z,76.16
2017-12-31T00:22:34.551Z,75.59
2017-12-31T00:23:34.549Z,75.78
2017-12-31T00:24:34.548Z,76.35
2017-12-31T00:25:34.544Z,75.49
2017-12-31T00:26:34.542Z,75.40
2017-12-31T00:27:34.542Z,75.87
2017-12-31T00:28:34.541Z,76.73
2017-12-31T00:29:34.536Z,77.01
2017-12-31T00:30:34.535Z,77.20
2017-12-31T00:31:34.536Z,76.92
2017-12-31T00:32:34.534Z,77.30
2017-12-31T00:33:34.530Z,78.25
2017-12-31T00:34:34.530Z,77.69
2017-12-31T00:35:34.529Z,77.36
2017-12-31T00:36:34.527Z,76.98
2017-12-31T00:37:34.525Z,77.45
2017-12-31T00:38:34.522Z,78.31
2017-12-31T00:39:34.522Z,78.69
2017-12-31T00:40:34.520Z,79.27
2017-12-31T00:41:34.518Z,78.98
2017-12-31T00:42:34.517Z,79.36
2017-12-31T00:43:34.516Z,78.98
2017-12-31T00:44:34.514Z,79.36
2017-12-31T00:45:34.512Z,79.27
2017-12-31T00:46:34.510Z,79.27
2017-12-31T00:47:34.509Z,80.65
2017-12-31T00:48:34.507Z,80.08
2017-12-31T00:49:34.505Z,79.55
2017-12-31T00:50:34.504Z,79.07
2017-12-31T00:51:34.503Z,77.93
2017-12-31T00:52:34.502Z,78.41
2017-12-31T00:53:34.498Z,78.12
2017-12-31T00:54:34.497Z,77.64
2017-12-31T00:55:34.496Z,77.45
2017-12-31T00:56:34.495Z,77.93
2017-12-31T00:57:34.491Z,77.64
2017-12-31T00:58:34.491Z,77.93
2017-12-31T00:59:34.489Z,77.45
2017-12-31T01:00:34.489Z,76.12
2017-12-31T01:01:34.486Z,75.74
2017-12-31T01:02:34.485Z,75.55
2017-12-31T01:03:34.483Z,74.69
2017-12-31T01:04:34.480Z,74.12
2017-12-31T01:05:34.479Z,74.40
2017-12-31T01:06:34.477Z,71.07
2017-12-31T01:07:34.476Z,68.91
2017-12-31T01:08:34.476Z,68.44
2017-12-31T01:09:34.473Z,68.44
2017-12-31T01:10:34.470Z,69.01
2017-12-31T01:11:34.470Z,68.91
2017-12-31T01:12:34.468Z,69.87
2017-12-31T01:13:34.467Z,69.48
2017-12-31T01:14:34.469Z,69.48
2017-12-31T01:15:34.464Z,69.58
2017-12-31T01:16:34.463Z,68.44
2017-12-31T01:17:34.459Z,69.29
2017-12-31T01:18:34.458Z,69.29
2017-12-31T01:19:34.456Z,68.82
2017-12-31T01:20:34.455Z,69.96
2017-12-31T01:21:34.452Z,69.77
2017-12-31T01:22:34.451Z,69.96
2017-12-31T01:23:34.450Z,69.64
2017-12-31T01:24:34.450Z,68.50
2017-12-31T01:25:34.445Z,67.58
2017-12-31T01:26:34.444Z,66.91
2017-12-31T01:27:34.443Z,67.29
2017-12-31T01:28:34.443Z,66.72
2017-12-31T01:29:34.439Z,67.48
2017-12-31T01:30:34.437Z,66.44
2017-12-31T01:31:34.437Z,65.86
2017-12-31T01:32:34.435Z,66.05
2017-12-31T01:33:34.432Z,65.96
2017-12-31T01:34:34.431Z,66.15
2017-12-31T01:35:34.430Z,65.77
2017-12-31T01:36:34.428Z,64.81
2017-12-31T01:37:34.425Z,65.20
2017-12-31T01:38:34.423Z,64.05
2017-12-31T01:39:34.423Z,64.05
2017-12-31T01:40:34.420Z,65.20
2017-12-31T01:41:34.431Z,64.62
2017-12-31T01:42:34.416Z,64.62
2017-12-31T01:43:34.414Z,64.15
2017-12-31T01:44:34.412Z,64.91
2017-12-31T01:45:34.410Z,64.43
2017-12-31T01:46:34.409Z,64.15
2017-12-31T01:47:34.407Z,63.99
2017-12-31T01:48:34.406Z,64.72
2017-12-31T01:49:34.403Z,65.29
2017-12-31T01:50:34.402Z,64.34
2017-12-31T01:51:34.400Z,64.43
2017-12-31T01:52:34.397Z,64.72
2017-12-31T01:53:34.397Z,64.72
2017-12-31T01:54:34.394Z,65.00
2017-12-31T01:55:34.393Z,64.91
2017-12-31T01:56:34.391Z,64.91
2017-12-31T01:57:34.389Z,65.20
2017-12-31T01:58:34.391Z,65.00
2017-12-31T01:59:34.388Z,65.20
2017-12-31T02:00:34.386Z,65.20
2017-12-31T02:01:34.382Z,65.39
2017-12-31T02:02:34.379Z,65.20
2017-12-31T02:03:34.379Z,64.81
2017-12-31T02:04:34.376Z,65.20
2017-12-31T02:05:34.373Z,64.81
2017-12-31T02:06:34.372Z,64.34
2017-12-31T02:07:34.371Z,64.62
2017-12-31T02:08:34.369Z,65.20
2017-12-31T02:09:34.366Z,64.81
2017-12-31T02:10:34.368Z,65.10
2017-12-31T02:11:34.364Z,64.43
2017-12-31T02:12:34.362Z,64.15
2017-12-31T02:13:34.361Z,64.34
2017-12-31T02:14:34.357Z,64.72
2017-12-31T02:15:34.357Z,64.34
2017-12-31T02:16:34.355Z,64.43
2017-12-31T02:17:34.352Z,64.72
2017-12-31T02:18:34.352Z,65.00
2017-12-31T02:19:34.350Z,63.48
2017-12-31T02:20:34.346Z,62.91
2017-12-31T02:21:34.346Z,63.10
2017-12-31T02:22:34.344Z,63.76
2017-12-31T02:23:34.342Z,64.34
2017-12-31T02:24:34.341Z,63.96
2017-12-31T02:25:34.338Z,63.76
2017-12-31T02:26:34.338Z,64.43
2017-12-31T02:27:34.335Z,63.57
2017-12-31T02:28:34.334Z,64.24
2017-12-31T02:29:34.332Z,63.57
2017-12-31T02:30:34.330Z,62.52
2017-12-31T02:31:34.329Z,62.24
2017-12-31T02:32:34.328Z,61.96
2017-12-31T02:33:34.326Z,61.67
2017-12-31T02:34:34.323Z,62.05
2017-12-31T02:35:34.324Z,61.67
2017-12-31T02:36:34.320Z,61.86
2017-12-31T02:37:34.318Z,62.72
2017-12-31T02:38:34.317Z,61.76
2017-12-31T02:39:34.314Z,62.24
2017-12-31T02:40:34.313Z,62.24
2017-12-31T02:41:34.311Z,62.15
2017-12-31T02:42:34.309Z,62.91
2017-12-31T02:43:34.307Z,62.05
2017-12-31T02:44:34.305Z,62.24
2017-12-31T02:45:34.303Z,62.34
2017-12-31T02:46:34.301Z,62.05
2017-12-31T02:47:34.300Z,61.76
2017-12-31T02:48:34.298Z,62.15
2017-12-31T02:49:34.295Z,62.52
2017-12-31T02:50:34.294Z,62.34
2017-12-31T02:51:34.292Z,62.15
2017-12-31T02:52:34.292Z,61.67
2017-12-31T02:53:34.288Z,60.72
2017-12-31T02:54:34.286Z,60.62
2017-12-31T02:55:34.291Z,61.19
2017-12-31T02:56:34.284Z,61.19
2017-12-31T02:57:34.286Z,61.96
2017-12-31T02:58:34.278Z,60.81
2017-12-31T02:59:34.277Z,59.86
2017-12-31T03:00:34.276Z,59.86
2017-12-31T03:01:34.274Z,60.05
2017-12-31T03:02:34.271Z,60.14
2017-12-31T03:03:34.270Z,59.86
2017-12-31T03:04:34.267Z,59.86
2017-12-31T03:05:34.265Z,60.62
2017-12-31T03:06:34.263Z,60.52
2017-12-31T03:07:34.264Z,58.62
2017-12-31T03:08:34.260Z,57.48
2017-12-31T03:09:34.259Z,57.98
2017-12-31T03:10:34.257Z,58.55
2017-12-31T03:11:34.255Z,59.31
2017-12-31T03:12:34.254Z,59.19
2017-12-31T03:13:34.251Z,59.86
2017-12-31T03:14:34.248Z,60.52
2017-12-31T03:15:34.247Z,60.52
2017-12-31T03:16:34.246Z,59.38
2017-12-31T03:17:34.244Z,59.57
2017-12-31T03:18:34.242Z,59.76
2017-12-31T03:19:34.241Z,60.91
2017-12-31T03:20:34.239Z,60.72
2017-12-31T03:21:34.235Z,61.19
2017-12-31T03:22:34.234Z,60.81
2017-12-31T03:23:34.238Z,61.29
2017-12-31T03:24:34.231Z,61.19
2017-12-31T03:25:34.229Z,59.57
2017-12-31T03:26:34.227Z,59.28
2017-12-31T03:27:34.226Z,58.52
2017-12-31T03:28:34.225Z,58.43
2017-12-31T03:29:34.221Z,57.86
2017-12-31T03:30:34.220Z,58.14
2017-12-31T03:31:34.217Z,58.43
2017-12-31T03:32:34.217Z,57.95
2017-12-31T03:33:34.216Z,58.04
2017-12-31T03:34:34.212Z,57.95
2017-12-31T03:35:34.211Z,57.95
2017-12-31T03:36:34.209Z,58.40
2017-12-31T03:37:34.207Z,58.52
2017-12-31T03:38:34.204Z,57.82
2017-12-31T03:39:34.203Z,58.52
2017-12-31T03:40:34.202Z,57.95
2017-12-31T03:41:34.199Z,57.57
2017-12-31T03:42:34.198Z,57.28
2017-12-31T03:43:34.196Z,56.62
2017-12-31T03:44:34.195Z,56.14
2017-12-31T03:45:34.193Z,57.00
2017-12-31T03:46:34.189Z,56.43
2017-12-31T03:47:34.188Z,56.62
2017-12-31T03:48:34.187Z,56.14
2017-12-31T03:49:34.184Z,55.95
2017-12-31T03:50:34.182Z,55.76
2017-12-31T03:51:34.180Z,56.04
2017-12-31T03:52:34.179Z,55.95
2017-12-31T03:53:34.176Z,56.04
2017-12-31T03:54:34.176Z,55.28
2017-12-31T03:55:34.174Z,55.28
2017-12-31T03:56:34.173Z,55.47
2017-12-31T03:57:34.170Z,55.85
2017-12-31T03:58:34.168Z,55.38
2017-12-31T03:59:34.166Z,55.76
2017-12-31T04:00:34.167Z,55.57
2017-12-31T04:01:34.165Z,54.90
2017-12-31T04:02:34.159Z,55.09
2017-12-31T04:03:34.159Z,55.09
2017-12-31T04:04:34.159Z,55.66
2017-12-31T04:05:34.155Z,55.28
2017-12-31T04:06:34.154Z,55.00
2017-12-31T04:07:34.153Z,55.09
2017-12-31T04:08:34.152Z,54.74
2017-12-31T04:09:34.148Z,54.61
2017-12-31T04:10:34.146Z,54.83
2017-12-31T04:11:34.145Z,55.28
2017-12-31T04:12:34.144Z,55.28
2017-12-31T04:13:34.141Z,56.14
2017-12-31T04:14:34.140Z,56.52
2017-12-31T04:15:34.140Z,56.81
2017-12-31T04:16:34.137Z,57.38
2017-12-31T04:17:34.136Z,58.33
2017-12-31T04:18:34.133Z,59.09
2017-12-31T04:19:34.132Z,60.43
2017-12-31T04:20:34.130Z,60.02
2017-12-31T04:21:34.129Z,60.05
2017-12-31T04:22:34.133Z,60.78
2017-12-31T04:23:34.125Z,61.00
2017-12-31T04:24:34.124Z,62.34
2017-12-31T04:25:34.121Z,62.97
2017-12-31T04:26:34.121Z,64.02
2017-12-31T04:27:34.119Z,64.21
2017-12-31T04:28:34.117Z,64.87
2017-12-31T04:29:34.121Z,65.55
2017-12-31T04:30:34.114Z,65.92
2017-12-31T04:31:34.112Z,65.92
2017-12-31T04:32:34.110Z,65.51
2017-12-31T04:33:34.110Z,65.42
2017-12-31T04:34:34.107Z,65.99
2017-12-31T04:35:34.106Z,65.83
2017-12-31T04:36:34.107Z,65.80
2017-12-31T04:37:34.104Z,65.99
2017-12-31T04:38:34.101Z,66.56
2017-12-31T04:39:34.100Z,66.94
2017-12-31T04:40:34.098Z,66.94
2017-12-31T04:41:34.097Z,66.85
2017-12-31T04:42:34.094Z,67.51
2017-12-31T04:43:34.094Z,67.51
2017-12-31T04:44:34.092Z,67.32
2017-12-31T04:45:34.088Z,67.32
2017-12-31T04:46:34.088Z,67.61
2017-12-31T04:47:34.089Z,67.99
2017-12-31T04:48:34.086Z,68.56
2017-12-31T04:49:34.082Z,69.32
2017-12-31T04:50:34.081Z,69.51
2017-12-31T04:51:34.079Z,69.10
2017-12-31T04:52:34.079Z,68.52
2017-12-31T04:53:34.075Z,67.38
2017-12-31T04:54:34.074Z,67.22
2017-12-31T04:55:34.074Z,67.99
2017-12-31T04:56:34.071Z,67.51
2017-12-31T04:57:34.069Z,68.15
2017-12-31T04:58:34.066Z,67.70
2017-12-31T04:59:34.072Z,67.80
2017-12-31T05:00:34.064Z,65.51
2017-12-31T05:01:34.061Z,66.46
2017-12-31T05:02:34.059Z,65.99
2017-12-31T05:03:34.058Z,63.99
2017-12-31T05:04:34.056Z,62.75
2017-12-31T05:05:34.055Z,62.18
2017-12-31T05:06:34.051Z,62.21
2017-12-31T05:07:34.100Z,62.68
2017-12-31T05:08:34.049Z,62.21
2017-12-31T05:09:34.046Z,62.30
2017-12-31T05:10:34.043Z,62.30
2017-12-31T05:11:34.043Z,62.02
2017-12-31T05:12:34.040Z,62.02
2017-12-31T05:13:34.037Z,62.12
2017-12-31T05:14:34.036Z,62.30
2017-12-31T05:15:34.034Z,63.17
2017-12-31T05:16:34.033Z,63.07
2017-12-31T05:17:34.030Z,63.17
2017-12-31T05:18:34.028Z,63.60
2017-12-31T05:19:34.028Z,63.70
2017-12-31T05:20:34.025Z,64.18
2017-12-31T05:21:34.023Z,64.37
2017-12-31T05:22:34.020Z,64.94
2017-12-31T05:23:34.018Z,64.94
2017-12-31T05:24:34.019Z,65.42
2017-12-31T05:25:34.015Z,65.42
2017-12-31T05:26:34.012Z,65.70
2017-12-31T05:27:34.011Z,65.61
2017-12-31T05:28:34.010Z,65.89
2017-12-31T05:29:34.007Z,66.37
2017-12-31T05:30:34.006Z,65.77
2017-12-31T05:31:34.004Z,65.86
2017-12-31T05:32:34.003Z,65.58
2017-12-31T05:33:34.000Z,65.77
2017-12-31T05:34:33.997Z,66.91
2017-12-31T05:35:33.995Z,66.91
2017-12-31T05:36:33.993Z,66.62
2017-12-31T05:37:33.991Z,66.81
2017-12-31T05:38:33.988Z,66.81
2017-12-31T05:39:33.987Z,66.53
2017-12-31T05:40:33.985Z,67.86
2017-12-31T05:41:33.982Z,67.47
2017-12-31T05:42:33.980Z,68.15
2017-12-31T05:43:33.978Z,68.05
2017-12-31T05:44:33.978Z,68.24
2017-12-31T05:45:33.975Z,68.43
2017-12-31T05:46:33.972Z,68.71
2017-12-31T05:47:33.970Z,68.62
2017-12-31T05:48:33.968Z,69.19
2017-12-31T05:49:33.966Z,69.00
2017-12-31T05:50:33.963Z,69.25
2017-12-31T05:51:33.960Z,69.82
2017-12-31T05:52:33.959Z,70.20
2017-12-31T05:53:33.956Z,70.87
2017-12-31T05:54:33.955Z,71.25
2017-12-31T05:55:33.952Z,71.72
2017-12-31T05:56:33.951Z,72.30
2017-12-31T05:57:33.947Z,73.15
2017-12-31T05:58:33.946Z,73.30
2017-12-31T05:59:33.943Z,73.59
2017-12-31T06:00:33.941Z,73.69
2017-12-31T06:01:33.937Z,73.78
2017-12-31T06:02:33.936Z,74.63
2017-12-31T06:03:33.933Z,74.82
2017-12-31T06:04:33.930Z,75.30
2017-12-31T06:05:33.928Z,74.82
2017-12-31T06:06:33.926Z,75.30
2017-12-31T06:07:33.923Z,75.49
2017-12-31T06:08:33.921Z,75.96
2017-12-31T06:09:33.918Z,75.74
2017-12-31T06:10:33.915Z,76.16
2017-12-31T06:11:33.914Z,75.87
2017-12-31T06:12:33.916Z,75.93
2017-12-31T06:13:33.907Z,75.59
2017-12-31T06:14:33.905Z,75.96
2017-12-31T06:15:33.904Z,76.40
2017-12-31T06:16:33.900Z,76.78
2017-12-31T06:17:33.897Z,76.97
2017-12-31T06:18:33.894Z,77.26
2017-12-31T06:19:33.891Z,77.17
2017-12-31T06:20:33.890Z,77.64
2017-12-31T06:21:33.887Z,78.21
2017-12-31T06:22:33.883Z,78.59
2017-12-31T06:23:33.880Z,78.88
2017-12-31T06:24:33.878Z,79.06
2017-12-31T06:25:33.874Z,79.31
2017-12-31T06:26:33.872Z,79.16
2017-12-31T06:27:33.869Z,79.83
2017-12-31T06:28:33.865Z,79.97
2017-12-31T06:29:33.862Z,79.88
2017-12-31T06:30:33.859Z,79.92
2017-12-31T06:31:33.856Z,79.79
2017-12-31T06:32:33.853Z,79.69
2017-12-31T06:33:33.851Z,79.79
2017-12-31T06:34:33.853Z,79.79
2017-12-31T06:35:33.856Z,79.79
2017-12-31T06:36:33.841Z,80.26
2017-12-31T06:37:33.838Z,80.64
2017-12-31T06:38:33.834Z,80.64
2017-12-31T06:39:33.831Z,81.30
2017-12-31T06:40:33.828Z,81.02
2017-12-31T06:41:33.826Z,81.59
2017-12-31T06:42:33.823Z,81.87
2017-12-31T06:43:33.818Z,81.97
2017-12-31T06:44:33.817Z,82.16
2017-12-31T06:45:33.811Z,82.64
2017-12-31T06:46:33.808Z,82.88
2017-12-31T06:47:33.806Z,83.20
2017-12-31T06:48:33.803Z,83.30
2017-12-31T06:49:33.798Z,83.01
2017-12-31T06:50:33.795Z,82.88
2017-12-31T06:51:33.792Z,83.07
2017-12-31T06:52:33.789Z,82.69
2017-12-31T06:53:33.791Z,83.36
2017-12-31T06:54:33.790Z,83.54
2017-12-31T06:55:33.778Z,83.45
2017-12-31T06:56:33.775Z,82.88
2017-12-31T06:57:33.774Z,83.54
2017-12-31T06:58:33.768Z,83.07
2017-12-31T06:59:33.764Z,83.45
2017-12-31T07:00:33.760Z,83.07
2017-12-31T07:01:33.757Z,83.07
2017-12-31T07:02:33.753Z,82.92
2017-12-31T07:03:33.751Z,82.45
2017-12-31T07:04:33.747Z,82.16
2017-12-31T07:05:33.742Z,82.45
2017-12-31T07:06:33.739Z,82.26
2017-12-31T07:07:33.737Z,81.97
2017-12-31T07:08:33.733Z,81.59
2017-12-31T07:09:33.730Z,81.59
2017-12-31T07:10:33.725Z,81.40
2017-12-31T07:11:33.721Z,81.40
2017-12-31T07:12:33.718Z,80.93
2017-12-31T07:13:33.715Z,81.40
2017-12-31T07:14:33.711Z,81.02
2017-12-31T07:15:33.708Z,81.30
2017-12-31T07:16:33.704Z,81.78
2017-12-31T07:17:33.701Z,81.78
2017-12-31T07:18:33.696Z,82.07
2017-12-31T07:19:33.693Z,81.97
2017-12-31T07:20:33.691Z,82.16
2017-12-31T07:21:33.685Z,82.16
2017-12-31T07:22:33.682Z,82.26
2017-12-31T07:23:33.678Z,82.35
2017-12-31T07:24:33.675Z,82.64
2017-12-31T07:25:33.672Z,83.01
2017-12-31T07:26:33.668Z,82.73
2017-12-31T07:27:33.664Z,82.45
2017-12-31T07:28:33.661Z,82.69
2017-12-31T07:29:33.656Z,83.54
2017-12-31T07:30:33.653Z,83.54
2017-12-31T07:31:33.650Z,84.11
2017-12-31T07:32:33.647Z,84.40
2017-12-31T07:33:33.641Z,84.97
2017-12-31T07:34:33.639Z,84.68
2017-12-31T07:35:33.636Z,85.06
2017-12-31T07:36:33.631Z,84.87
2017-12-31T07:37:33.627Z,85.72
2017-12-31T07:38:33.622Z,85.82
2017-12-31T07:39:33.619Z,85.44
2017-12-31T07:40:33.617Z,85.68
2017-12-31T07:41:33.611Z,85.59
2017-12-31T07:42:33.607Z,85.87
2017-12-31T07:43:33.604Z,85.53
2017-12-31T07:44:33.600Z,85.59
2017-12-31T07:45:33.595Z,85.59
2017-12-31T07:46:33.594Z,85.59
2017-12-31T07:47:33.587Z,85.63
2017-12-31T07:48:33.585Z,85.82
2017-12-31T07:49:33.580Z,86.11
2017-12-31T07:50:33.575Z,84.97
2017-12-31T07:51:33.572Z,85.44
2017-12-31T07:52:33.568Z,84.34
2017-12-31T07:53:33.563Z,82.16
2017-12-31T07:54:33.562Z,80.02
2017-12-31T07:55:33.556Z,77.87
2017-12-31T07:56:33.554Z,77.01
2017-12-31T07:57:33.549Z,75.87
2017-12-31T07:58:33.548Z,74.96
2017-12-31T07:59:33.545Z,73.91
2017-12-31T08:00:33.546Z,73.10
2017-12-31T08:01:33.541Z,71.47
2017-12-31T08:02:33.539Z,69.76
2017-12-31T08:03:33.538Z,69.76
2017-12-31T08:04:33.538Z,70.24
2017-12-31T08:05:33.535Z,71.00
2017-12-31T08:06:33.533Z,71.72
2017-12-31T08:07:33.532Z,72.86
2017-12-31T08:08:33.531Z,74.29
2017-12-31T08:09:33.529Z,74.01
2017-12-31T08:10:33.528Z,74.29
2017-12-31T08:11:33.527Z,74.63
2017-12-31T08:12:33.525Z,75.11
2017-12-31T08:13:33.523Z,75.30
2017-12-31T08:14:33.524Z,75.59
2017-12-31T08:15:33.521Z,75.96
2017-12-31T08:16:33.520Z,76.88
2017-12-31T08:17:33.518Z,77.83
2017-12-31T08:18:33.516Z,78.40
2017-12-31T08:19:33.515Z,78.21
2017-12-31T08:20:33.513Z,78.69
2017-12-31T08:21:33.557Z,79.16
2017-12-31T08:22:33.515Z,78.40
2017-12-31T08:23:33.509Z,77.97
2017-12-31T08:24:33.505Z,76.82
2017-12-31T08:25:33.503Z,75.87
2017-12-31T08:26:33.501Z,75.53
2017-12-31T08:27:33.500Z,74.87
2017-12-31T08:28:33.499Z,74.10
2017-12-31T08:29:33.497Z,73.34
2017-12-31T08:30:33.497Z,73.53
2017-12-31T08:31:33.495Z,73.34
2017-12-31T08:32:33.494Z,73.91
2017-12-31T08:33:33.492Z,74.29
2017-12-31T08:34:33.492Z,74.77
2017-12-31T08:35:33.489Z,74.54
2017-12-31T08:36:33.488Z,75.49
2017-12-31T08:37:33.488Z,75.59
2017-12-31T08:38:33.485Z,76.35
2017-12-31T08:39:33.484Z,75.96
2017-12-31T08:40:33.482Z,75.59
2017-12-31T08:41:33.479Z,75.87
2017-12-31T08:42:33.478Z,74.67
2017-12-31T08:43:33.477Z,73.72
2017-12-31T08:44:33.475Z,72.77
2017-12-31T08:45:33.473Z,72.71
2017-12-31T08:46:33.471Z,71.38
2017-12-31T08:47:33.501Z,70.52
2017-12-31T08:48:33.477Z,69.99
2017-12-31T08:49:33.467Z,70.43
2017-12-31T08:50:33.467Z,70.90
2017-12-31T08:51:33.466Z,71.72
2017-12-31T08:52:33.466Z,72.49
2017-12-31T08:53:33.465Z,72.58
2017-12-31T08:54:33.465Z,73.25
2017-12-31T08:55:33.470Z,72.77
2017-12-31T08:56:33.464Z,72.52
2017-12-31T08:57:33.462Z,72.52
2017-12-31T08:58:33.462Z,71.67
2017-12-31T08:59:33.461Z,72.52
2017-12-31T09:00:33.461Z,72.58
2017-12-31T09:01:33.460Z,72.86
2017-12-31T09:02:33.460Z,72.71
2017-12-31T09:03:33.460Z,71.95
2017-12-31T09:04:33.461Z,71.57
2017-12-31T09:05:33.458Z,71.38
2017-12-31T09:06:33.458Z,70.43
2017-12-31T09:07:33.458Z,70.52
2017-12-31T09:08:33.458Z,71.82
2017-12-31T09:09:33.457Z,73.44
2017-12-31T09:10:33.457Z,74.54
2017-12-31T09:11:33.456Z,75.21
2017-12-31T09:12:33.456Z,75.59
2017-12-31T09:13:33.453Z,76.06
2017-12-31T09:14:33.502Z,76.92
2017-12-31T09:15:33.451Z,76.92
2017-12-31T09:16:33.456Z,76.92
2017-12-31T09:17:33.448Z,75.72
2017-12-31T09:18:33.447Z,74.24
2017-12-31T09:19:33.447Z,72.17
2017-12-31T09:20:33.446Z,71.03
2017-12-31T09:21:33.447Z,69.89
2017-12-31T09:22:33.443Z,69.79
2017-12-31T09:23:33.442Z,69.51
2017-12-31T09:24:33.443Z,69.42
2017-12-31T09:25:33.440Z,69.42
2017-12-31T09:26:33.441Z,69.89
2017-12-31T09:27:33.439Z,69.85
2017-12-31T09:28:33.440Z,70.33
2017-12-31T09:29:33.444Z,69.99
2017-12-31T09:30:33.436Z,69.89
2017-12-31T09:31:33.437Z,69.35
2017-12-31T09:32:33.437Z,67.83
2017-12-31T09:33:33.436Z,67.83
2017-12-31T09:34:33.436Z,68.18
2017-12-31T09:35:33.437Z,69.60
2017-12-31T09:36:33.437Z,69.23
2017-12-31T09:37:33.436Z,69.60
2017-12-31T09:38:33.439Z,68.59
2017-12-31T09:39:33.450Z,66.91
2017-12-31T09:40:33.440Z,64.31
2017-12-31T09:41:33.439Z,61.57
2017-12-31T09:42:33.441Z,59.31
2017-12-31T09:43:33.442Z,56.85
2017-12-31T09:44:33.446Z,55.64
2017-12-31T09:45:33.449Z,55.45
2017-12-31T09:46:33.450Z,54.88
2017-12-31T09:47:33.454Z,55.71
2017-12-31T09:48:33.458Z,58.16
2017-12-31T09:49:33.460Z,58.54
2017-12-31T09:50:33.465Z,57.59
2017-12-31T09:51:33.470Z,58.54
2017-12-31T09:52:33.473Z,60.33
2017-12-31T09:53:33.477Z,61.16
2017-12-31T09:54:33.486Z,61.92
2017-12-31T09:55:33.494Z,60.78
2017-12-31T09:56:33.489Z,62.02
2017-12-31T09:57:33.493Z,62.11
2017-12-31T09:58:33.497Z,60.90
2017-12-31T09:59:33.500Z,60.04
2017-12-31T10:00:33.504Z,59.95
2017-12-31T10:01:33.507Z,59.69
2017-12-31T10:02:33.511Z,59.31
2017-12-31T10:03:33.516Z,58.36
2017-12-31T10:04:33.519Z,57.97
2017-12-31T10:05:33.523Z,58.64
2017-12-31T10:06:33.526Z,60.24
2017-12-31T10:07:33.531Z,61.57
2017-12-31T10:08:33.535Z,60.90
2017-12-31T10:09:33.540Z,59.98
2017-12-31T10:10:33.542Z,59.50
2017-12-31T10:11:33.570Z,59.56
2017-12-31T10:12:33.551Z,60.61
2017-12-31T10:13:33.560Z,60.17
2017-12-31T10:14:33.560Z,59.44
2017-12-31T10:15:33.564Z,57.53
2017-12-31T10:16:33.568Z,56.40
2017-12-31T10:17:33.574Z,56.50
2017-12-31T10:18:33.578Z,56.31
2017-12-31T10:19:33.587Z,55.45
2017-12-31T10:20:33.588Z,54.97
2017-12-31T10:21:33.593Z,54.80
2017-12-31T10:22:33.600Z,54.14
2017-12-31T10:23:33.609Z,54.55
2017-12-31T10:24:33.613Z,54.26
2017-12-31T10:25:33.620Z,52.85
2017-12-31T10:26:33.626Z,51.79
2017-12-31T10:27:33.633Z,50.65
2017-12-31T10:28:33.640Z,50.96
2017-12-31T10:29:33.647Z,51.15
2017-12-31T10:30:33.656Z,51.15
2017-12-31T10:31:33.693Z,52.75
2017-12-31T10:32:33.669Z,52.85
2017-12-31T10:33:33.677Z,53.81
2017-12-31T10:34:33.684Z,52.85
2017-12-31T10:35:33.692Z,53.14
2017-12-31T10:36:33.698Z,53.04
2017-12-31T10:37:33.706Z,52.69
2017-12-31T10:38:33.713Z,52.97
2017-12-31T10:39:33.721Z,52.69
2017-12-31T10:40:33.729Z,50.74
2017-12-31T10:41:33.735Z,50.81
2017-12-31T10:42:33.743Z,51.87
2017-12-31T10:43:33.751Z,52.73
2017-12-31T10:44:33.759Z,52.63
2017-12-31T10:45:33.765Z,51.51
2017-12-31T10:46:33.772Z,50.29
2017-12-31T10:47:33.780Z,48.95
2017-12-31T10:48:33.788Z,48.11
2017-12-31T10:49:33.795Z,48.40
2017-12-31T10:50:33.802Z,48.69
2017-12-31T10:51:33.810Z,48.97
2017-12-31T10:52:33.819Z,47.82
2017-12-31T10:53:33.825Z,46.81
2017-12-31T10:54:33.835Z,46.05
2017-12-31T10:55:33.842Z,45.62
2017-12-31T10:56:33.850Z,47.73
2017-12-31T10:57:33.865Z,48.49
2017-12-31T10:58:33.865Z,48.18
2017-12-31T10:59:33.874Z,48.18
2017-12-31T11:00:33.882Z,49.40
2017-12-31T11:01:33.890Z,50.34
2017-12-31T11:02:33.899Z,51.77
2017-12-31T11:03:33.906Z,51.01
2017-12-31T11:04:33.915Z,51.10
2017-12-31T11:05:33.920Z,50.50
2017-12-31T11:06:33.930Z,51.36
2017-12-31T11:07:33.937Z,51.36
2017-12-31T11:08:33.946Z,52.13
2017-12-31T11:09:33.951Z,52.42
2017-12-31T11:10:33.960Z,51.07
2017-12-31T11:11:33.967Z,50.91
2017-12-31T11:12:33.975Z,50.34
2017-12-31T11:13:33.982Z,49.76
2017-12-31T11:14:33.989Z,51.10
2017-12-31T11:15:33.997Z,51.97
2017-12-31T11:16:34.005Z,52.06
2017-12-31T11:17:34.011Z,50.52
2017-12-31T11:18:34.019Z,50.05
2017-12-31T11:19:34.031Z,49.74
2017-12-31T11:20:34.032Z,49.93
2017-12-31T11:21:34.039Z,49.57
2017-12-31T11:22:34.045Z,49.98
2017-12-31T11:23:34.052Z,49.79
2017-12-31T11:24:34.062Z,48.44
2017-12-31T11:25:34.064Z,49.48
2017-12-31T11:26:34.071Z,49.48
2017-12-31T11:27:34.081Z,49.76
2017-12-31T11:28:34.084Z,50.62
2017-12-31T11:29:34.091Z,50.81
2017-12-31T11:30:34.100Z,50.17
2017-12-31T11:31:34.104Z,50.10
2017-12-31T11:32:34.111Z,49.65
2017-12-31T11:33:34.116Z,48.78
2017-12-31T11:34:34.122Z,47.34
2017-12-31T11:35:34.129Z,49.81
2017-12-31T11:36:34.136Z,49.62
2017-12-31T11:37:34.143Z,50.29
2017-12-31T11:38:34.151Z,50.84
2017-12-31T11:39:34.155Z,50.74
2017-12-31T11:40:34.162Z,49.60
2017-12-31T11:41:34.167Z,50.38
2017-12-31T11:42:34.174Z,51.06
2017-12-31T11:43:34.180Z,50.29
2017-12-31T11:44:34.187Z,49.81
2017-12-31T11:45:34.194Z,51.06
2017-12-31T11:46:34.199Z,49.81
2017-12-31T11:47:34.205Z,49.52
2017-12-31T11:48:34.211Z,49.62
2017-12-31T11:49:34.217Z,49.45
2017-12-31T11:50:34.223Z,49.93
2017-12-31T11:51:34.230Z,48.88
2017-12-31T11:52:34.236Z,48.71
2017-12-31T11:53:34.241Z,49.84
2017-12-31T11:54:34.247Z,49.45
2017-12-31T11:55:34.256Z,49.45
2017-12-31T11:56:34.260Z,49.71
2017-12-31T11:57:34.265Z,50.77
2017-12-31T11:58:34.273Z,50.10
2017-12-31T11:59:34.280Z,50.84
2017-12-31T12:00:34.286Z,52.09
2017-12-31T12:01:34.291Z,51.79
2017-12-31T12:02:34.297Z,51.32
2017-12-31T12:03:34.317Z,51.20
2017-12-31T12:04:34.359Z,52.63
2017-12-31T12:05:34.315Z,53.30
2017-12-31T12:06:34.321Z,53.02
2017-12-31T12:07:34.327Z,51.79
2017-12-31T12:08:34.333Z,51.22
2017-12-31T12:09:34.338Z,51.79
2017-12-31T12:10:34.346Z,51.70
2017-12-31T12:11:34.351Z,51.51
2017-12-31T12:12:34.357Z,52.44
2017-12-31T12:13:34.372Z,53.56
2017-12-31T12:14:34.368Z,53.75
2017-12-31T12:15:34.373Z,54.23
2017-12-31T12:16:34.381Z,54.61
2017-12-31T12:17:34.384Z,54.61
2017-12-31T12:18:34.389Z,55.57
2017-12-31T12:19:34.396Z,54.43
2017-12-31T12:20:34.401Z,55.00
2017-12-31T12:21:34.405Z,54.90
2017-12-31T12:22:34.412Z,53.94
2017-12-31T12:23:34.418Z,53.20
2017-12-31T12:24:34.423Z,53.11
2017-12-31T12:25:34.428Z,53.78
2017-12-31T12:26:34.435Z,53.69
2017-12-31T12:27:34.440Z,52.63
2017-12-31T12:28:34.447Z,52.83
2017-12-31T12:29:34.453Z,54.26
2017-12-31T12:30:34.459Z,53.20
2017-12-31T12:31:34.464Z,53.02
2017-12-31T12:32:34.470Z,52.63
2017-12-31T12:33:34.476Z,51.87
2017-12-31T12:34:34.481Z,51.61
2017-12-31T12:35:34.487Z,50.93
2017-12-31T12:36:34.493Z,51.29
2017-12-31T12:37:34.498Z,51.68
2017-12-31T12:38:34.504Z,52.83
2017-12-31T12:39:34.511Z,51.68
2017-12-31T12:40:34.518Z,53.30
2017-12-31T12:41:34.522Z,51.70
2017-12-31T12:42:34.530Z,50.46
2017-12-31T12:43:34.535Z,49.60
2017-12-31T12:44:34.541Z,51.01
2017-12-31T12:45:34.548Z,51.77
2017-12-31T12:46:34.553Z,51.48
2017-12-31T12:47:34.560Z,52.15
2017-12-31T12:48:34.567Z,54.07
2017-12-31T12:49:34.572Z,53.69
2017-12-31T12:50:34.579Z,51.68
2017-12-31T12:51:34.584Z,51.48
2017-12-31T12:52:34.592Z,53.11